Time;durP1;ratioP1;P1;durP2;ratioP2;P2;SDS_P1;SDS_P2;PMS_P1;PMS_P2;Temp;Humidity;BMP_temperature;BMP_pressure;BME280_temperature;BME280_humidity;BME280_pressure;Samples;Min_cycle;Max_cycle;Signal;HPM_P1;HPM_P2
2023/10/09 00:01:50;;;;;;;5.75;4.50;;;23.20;53.60;;;;;;4999001;28;20034;-62
2023/10/09 00:04:17;;;;;;;4.93;4.03;;;23.20;53.60;;;;;;5000489;28;20425;-63
2023/10/09 00:06:43;;;;;;;5.05;4.00;;;23.10;53.50;;;;;;5002261;28;20039;-63
2023/10/09 00:09:17;;;;;;;4.40;3.60;;;23.10;53.50;;;;;;5002668;28;20517;-62
2023/10/09 00:11:44;;;;;;;5.30;3.90;;;23.10;53.50;;;;;;5001374;28;20030;-62
2023/10/09 00:14:11;;;;;;;5.18;4.03;;;23.10;53.50;;;;;;5001811;28;20390;-60
2023/10/09 00:16:43;;;;;;;5.00;4.22;;;23.10;53.50;;;;;;5001269;28;20026;-60
2023/10/09 00:19:19;;;;;;;5.85;4.75;;;23.10;53.50;;;;;;4997995;28;20022;-61
2023/10/09 00:21:47;;;;;;;4.93;4.05;;;23.20;53.60;;;;;;5000574;28;20045;-63
2023/10/09 00:24:13;;;;;;;5.22;3.97;;;23.10;53.70;;;;;;5000144;28;20029;-63
2023/10/09 00:26:45;;;;;;;4.20;3.58;;;23.10;53.50;;;;;;4999534;28;20472;-63
2023/10/09 00:29:15;;;;;;;4.60;4.00;;;23.10;53.60;;;;;;5001439;28;20033;-63
2023/10/09 00:31:50;;;;;;;;;;;23.10;53.60;;;;;;5001970;28;20117;-63
2023/10/09 00:34:22;;;;;;;4.78;4.18;;;23.10;53.60;;;;;;4999812;28;19975;-61
2023/10/09 00:36:50;;;;;;;4.78;3.78;;;23.10;53.60;;;;;;5000382;28;20066;-61
2023/10/09 00:39:33;;;;;;;5.25;4.13;;;23.00;53.50;;;;;;5001355;28;20053;-62
2023/10/09 00:42:06;;;;;;;5.50;4.20;;;23.10;53.60;;;;;;5001003;28;20077;-62
2023/10/09 00:44:39;;;;;;;4.38;3.50;;;23.00;53.50;;;;;;5000110;28;20088;-62
2023/10/09 00:47:21;;;;;;;3.90;3.47;;;23.00;53.50;;;;;;4999864;28;20053;-62
2023/10/09 00:49:58;;;;;;;4.93;3.90;;;23.00;53.60;;;;;;4998208;28;20080;-62
2023/10/09 00:52:32;;;;;;;4.50;3.72;;;23.00;53.60;;;;;;5002482;28;20037;-62
2023/10/09 00:55:05;;;;;;;4.95;3.92;;;23.10;53.60;;;;;;5001431;28;20058;-62
2023/10/09 00:57:37;;;;;;;4.30;3.78;;;23.00;53.50;;;;;;5000939;28;20030;-62
2023/10/09 01:00:10;;;;;;;4.35;3.83;;;23.00;53.60;;;;;;4999008;28;20026;-62
2023/10/09 01:02:37;;;;;;;5.22;4.10;;;23.00;53.50;;;;;;5000089;28;20149;-62
2023/10/09 01:08:00;;;;;;;4.15;3.42;;;23.00;53.60;;;;;;5000554;28;20042;-63
2023/10/09 01:10:33;;;;;;;4.60;3.70;;;23.00;53.60;;;;;;5001318;28;20037;-62
2023/10/09 01:12:59;;;;;;;4.20;3.50;;;23.00;53.60;;;;;;4999946;28;20041;-62
2023/10/09 01:15:43;;;;;;;4.55;3.60;;;23.00;53.60;;;;;;4999712;28;20029;-62
2023/10/09 01:18:09;;;;;;;4.40;3.67;;;23.00;53.60;;;;;;5000128;28;20042;-62
2023/10/09 01:20:41;;;;;;;4.95;3.90;;;22.90;53.60;;;;;;4999634;28;20430;-62
2023/10/09 01:23:11;;;;;;;4.00;3.60;;;23.00;53.60;;;;;;5000666;28;20034;-61
2023/10/09 01:25:45;;;;;;;4.38;3.50;;;22.90;53.60;;;;;;5000168;28;20168;-60
2023/10/09 01:28:15;;;;;;;4.40;3.78;;;22.90;53.60;;;;;;5002576;28;20061;-60
2023/10/09 01:30:42;;;;;;;4.93;3.75;;;22.90;53.60;;;;;;5000770;28;20124;-60
2023/10/09 01:33:23;;;;;;;4.85;4.05;;;22.90;53.60;;;;;;4999007;28;20022;-63
2023/10/09 01:35:50;;;;;;;5.10;3.55;;;22.90;53.60;;;;;;5000064;28;20047;-62
2023/10/09 01:38:16;;;;;;;4.47;3.70;;;22.90;53.60;;;;;;5000444;28;20034;-62
2023/10/09 01:40:44;;;;;;;4.50;3.45;;;22.90;53.60;;;;;;4999363;28;20071;-63
2023/10/09 01:43:10;;;;;;;4.93;3.70;;;22.90;53.60;;;;;;5001533;28;20525;-62
2023/10/09 01:45:46;;;;;;;4.10;3.33;;;22.90;53.60;;;;;;4999687;28;20034;-62
2023/10/09 01:48:14;;;;;;;4.32;3.22;;;22.90;53.60;;;;;;4997852;28;20149;-61
2023/10/09 01:50:41;;;;;;;4.00;3.25;;;22.90;53.60;;;;;;4999473;28;21827;-62
2023/10/09 01:53:08;;;;;;;4.10;3.30;;;22.90;53.60;;;;;;4998565;28;20041;-61
2023/10/09 01:55:45;;;;;;;4.05;3.35;;;22.90;53.60;;;;;;5001658;28;20032;-61
2023/10/09 02:00:54;;;;;;;4.43;3.53;;;22.90;53.60;;;;;;4998955;28;20030;-61
2023/10/09 02:03:23;;;;;;;3.65;3.25;;;22.80;53.60;;;;;;4997333;28;20510;-61
2023/10/09 02:05:50;;;;;;;4.45;3.33;;;22.80;53.60;;;;;;4998290;28;20053;-62
2023/10/09 02:08:26;;;;;;;4.10;2.95;;;22.80;53.60;;;;;;4997211;28;20030;-61
2023/10/09 02:10:55;;;;;;;3.85;3.30;;;22.80;53.60;;;;;;4998804;28;20157;-62
2023/10/09 02:13:29;;;;;;;4.47;3.28;;;22.80;53.60;;;;;;4998739;28;20042;-62
2023/10/09 02:16:14;;;;;;;3.78;3.00;;;22.80;53.60;;;;;;5000226;28;20031;-63
2023/10/09 02:18:52;;;;;;;4.75;3.33;;;22.80;53.60;;;;;;4997933;28;20497;-62
2023/10/09 02:21:28;;;;;;;4.25;3.30;;;22.80;53.60;;;;;;4998980;28;20411;-62
2023/10/09 02:23:56;;;;;;;3.50;3.13;;;22.80;53.60;;;;;;4999426;28;20033;-62
2023/10/09 02:26:26;;;;;;;4.22;3.45;;;22.80;53.60;;;;;;4999677;28;20101;-62
2023/10/09 02:28:58;;;;;;;3.60;3.20;;;22.80;53.60;;;;;;4998136;28;20449;-62
2023/10/09 02:31:27;;;;;;;3.72;3.00;;;22.80;54.10;;;;;;4997037;28;20113;-63
2023/10/09 02:33:55;;;;;;;4.10;3.30;;;22.70;53.60;;;;;;4997831;28;20027;-60
2023/10/09 02:36:21;;;;;;;4.25;3.20;;;22.80;53.60;;;;;;4997075;28;20030;-59
2023/10/09 02:38:48;;;;;;;3.95;3.13;;;22.80;53.60;;;;;;4999754;28;20121;-60
2023/10/09 02:43:44;;;;;;;3.70;3.00;;;22.70;53.60;;;;;;4998642;28;20068;-62
2023/10/09 02:46:17;;;;;;;4.40;3.40;;;22.80;53.60;;;;;;4997736;28;20038;-62
2023/10/09 02:48:53;;;;;;;3.78;3.35;;;22.70;53.60;;;;;;4999052;28;20046;-62
2023/10/09 02:54:34;;;;;;;3.63;2.97;;;22.70;53.60;;;;;;5000471;28;20490;-60
2023/10/09 02:59:32;;;;;;;3.90;3.10;;;22.70;53.60;;;;;;5000038;28;20501;-61
2023/10/09 03:01:59;;;;;;;4.35;3.50;;;22.70;53.60;;;;;;5014211;28;20041;-60
2023/10/09 03:04:30;;;;;;;3.60;3.03;;;22.70;53.60;;;;;;5003810;28;20041;-60
2023/10/09 03:07:00;;;;;;;3.95;3.05;;;22.70;54.10;;;;;;5002172;28;20363;-60
2023/10/09 03:09:27;;;;;;;3.67;3.20;;;22.70;53.60;;;;;;5002080;28;20481;-61
2023/10/09 03:12:05;;;;;;;4.03;3.45;;;22.70;53.50;;;;;;5002783;28;20027;-60
2023/10/09 03:14:35;;;;;;;3.90;3.10;;;22.70;53.50;;;;;;5003204;28;20519;-60
2023/10/09 03:17:01;;;;;;;3.70;2.95;;;22.70;53.50;;;;;;5001804;28;20088;-60
2023/10/09 03:19:37;;;;;;;3.65;2.97;;;22.70;53.50;;;;;;4999604;28;20106;-59
2023/10/09 03:22:04;;;;;;;4.15;3.30;;;22.70;53.50;;;;;;5004392;28;20034;-60
2023/10/09 03:24:33;;;;;;;3.70;3.10;;;22.70;53.60;;;;;;5004826;28;20034;-59
2023/10/09 03:26:59;;;;;;;4.55;3.30;;;22.70;53.50;;;;;;5001872;28;20117;-59
2023/10/09 03:29:25;;;;;;;3.50;3.00;;;22.70;53.50;;;;;;5002178;28;20117;-60
2023/10/09 03:31:51;;;;;;;4.75;3.08;;;22.70;53.50;;;;;;5002456;28;20046;-60
2023/10/09 03:34:18;;;;;;;4.07;3.13;;;22.70;53.50;;;;;;5001251;28;20014;-59
2023/10/09 03:36:48;;;;;;;4.43;3.20;;;22.70;53.50;;;;;;5002046;28;20109;-58
2023/10/09 03:41:59;;;;;;;4.30;3.22;;;22.70;53.50;;;;;;5003681;28;20045;-63
2023/10/09 03:44:28;;;;;;;3.90;3.38;;;22.70;53.50;;;;;;5003093;28;20029;-62
2023/10/09 03:46:54;;;;;;;;;;;22.70;53.50;;;;;;5004006;28;20505;-63
2023/10/09 03:49:24;;;;;;;4.22;3.10;;;22.70;53.50;;;;;;5001431;28;19909;-62
2023/10/09 03:51:50;;;;;;;3.70;2.90;;;22.70;53.50;;;;;;5003389;28;20038;-63
2023/10/09 03:54:20;;;;;;;3.85;3.05;;;22.70;53.50;;;;;;5002070;28;20499;-62
2023/10/09 03:56:49;;;;;;;3.85;3.00;;;22.60;53.50;;;;;;5003578;28;20513;-62
2023/10/09 03:59:16;;;;;;;4.10;3.17;;;22.60;53.50;;;;;;5001030;28;20026;-63
2023/10/09 04:01:43;;;;;;;4.63;3.10;;;22.60;53.50;;;;;;5002428;28;20033;-62
2023/10/09 04:04:13;;;;;;;3.72;2.88;;;22.60;53.50;;;;;;4999810;28;20104;-63
2023/10/09 04:06:39;;;;;;;3.63;2.90;;;22.60;53.50;;;;;;5001960;28;20037;-63
2023/10/09 04:14:47;;;;;;;3.70;2.90;;;22.60;53.50;;;;;;5000795;28;20065;-63
2023/10/09 04:22:31;;;;;;;3.38;2.65;;;22.60;54.00;;;;;;5001204;28;20111;-62
2023/10/09 04:24:57;;;;;;;3.72;2.88;;;22.60;53.50;;;;;;5001003;28;20058;-63
2023/10/09 04:27:26;;;;;;;3.88;3.00;;;22.60;53.50;;;;;;5002796;28;20072;-63
2023/10/09 04:29:54;;;;;;;;;;;22.60;53.50;;;;;;5002254;28;20034;-63
2023/10/09 04:32:20;;;;;;;3.60;2.85;;;22.60;53.60;;;;;;5000806;28;19917;-63
2023/10/09 04:34:49;;;;;;;3.38;2.80;;;22.60;53.50;;;;;;4999124;28;20030;-63
2023/10/09 04:40:10;;;;;;;3.78;2.83;;;22.60;53.60;;;;;;5000651;28;20269;-63
2023/10/09 04:42:36;;;;;;;3.45;2.88;;;22.60;53.60;;;;;;5000548;28;20065;-63
2023/10/09 04:47:49;;;;;;;4.10;2.53;;;22.60;53.60;;;;;;4998785;28;20037;-63
2023/10/09 05:03:06;;;;;;;4.13;2.88;;;22.50;53.70;;;;;;5001843;28;20372;-62
2023/10/09 05:08:20;;;;;;;3.88;3.10;;;22.50;53.70;;;;;;5001437;28;20025;-62
2023/10/09 05:13:42;;;;;;;3.20;2.40;;;22.60;54.00;;;;;;5001396;28;20034;-63
2023/10/09 05:16:18;;;;;;;3.28;2.55;;;22.50;54.00;;;;;;5000491;28;20026;-64
2023/10/09 05:18:45;;;;;;;4.72;2.90;;;22.50;54.00;;;;;;5001370;28;20488;-63
2023/10/09 05:34:36;;;;;;;3.28;2.25;;;22.50;54.30;;;;;;4999558;28;20025;-63
2023/10/09 05:37:22;;;;;;;3.17;2.55;;;22.50;54.30;;;;;;5000336;28;20029;-64
2023/10/09 06:11:43;;;;;;;4.45;3.00;;;22.70;54.20;;;;;;5001040;28;20018;-62
2023/10/09 06:14:04;;;;;;;4.43;2.97;;;22.60;54.10;;;;;;4998051;28;20406;-62
2023/10/09 06:19:28;;;;;;;4.03;3.03;;;22.70;54.20;;;;;;4966911;28;20042;-62
2023/10/09 06:24:42;;;;;;;4.10;2.95;;;22.70;54.00;;;;;;4997958;28;20041;-62
2023/10/09 06:27:12;;;;;;;5.07;2.80;;;22.70;54.00;;;;;;4999716;28;20044;-62
2023/10/09 06:35:16;;;;;;;4.35;3.10;;;22.70;54.50;;;;;;4995979;28;20125;-62
2023/10/09 06:43:09;;;;;;;4.13;3.08;;;22.80;53.90;;;;;;4999744;28;20069;-63
2023/10/09 06:45:44;;;;;;;4.20;3.05;;;22.80;54.00;;;;;;4998102;28;20034;-63
2023/10/09 06:57:13;;;;;;;3.58;2.58;;;22.90;53.90;;;;;;4998779;28;20026;-62
2023/10/09 06:59:41;;;;;;;6.90;2.75;;;22.90;53.90;;;;;;4996457;28;20113;-62
2023/10/09 07:02:25;;;;;;;4.47;2.60;;;22.90;54.00;;;;;;4997848;28;20531;-62
2023/10/09 07:04:54;;;;;;;4.00;2.85;;;22.90;53.90;;;;;;4999489;28;20034;-62
2023/10/09 07:07:24;;;;;;;3.78;2.85;;;22.90;53.80;;;;;;4996982;28;20084;-61
2023/10/09 07:12:42;;;;;;;4.15;3.00;;;22.90;53.80;;;;;;4999538;28;20045;-63
2023/10/09 07:20:13;;;;;;;4.15;2.78;;;22.90;53.80;;;;;;4998748;28;20022;-60
2023/10/09 07:22:52;;;;;;;5.15;2.60;;;22.90;53.80;;;;;;4998306;28;20030;-59
2023/10/09 07:25:32;;;;;;;4.03;2.60;;;23.00;53.80;;;;;;4998726;28;20137;-59
2023/10/09 07:27:59;;;;;;;4.38;2.88;;;22.90;53.80;;;;;;4999841;28;20104;-60
2023/10/09 07:38:20;;;;;;;3.57;2.57;;;23.00;53.70;;;;;;4999152;28;20117;-62
2023/10/09 07:43:45;;;;;;;4.22;2.60;;;23.00;53.60;;;;;;5004842;28;20038;-61
2023/10/09 07:46:32;;;;;;;4.60;3.10;;;23.00;53.60;;;;;;4998102;28;20117;-61
2023/10/09 07:49:08;;;;;;;3.80;2.78;;;23.00;53.60;;;;;;5003306;28;20088;-62
2023/10/09 07:51:36;;;;;;;4.18;2.78;;;23.00;53.60;;;;;;5001434;28;20477;-62
2023/10/09 07:54:09;;;;;;;3.83;2.78;;;23.00;53.50;;;;;;5002773;28;20080;-62
2023/10/09 07:56:53;;;;;;;4.85;2.80;;;23.00;53.50;;;;;;5003515;28;20022;-62
2023/10/09 07:59:19;;;;;;;5.32;2.92;;;23.00;53.60;;;;;;5003706;28;20387;-62
2023/10/09 08:01:54;;;;;;;3.90;2.67;;;23.10;53.60;;;;;;4999572;28;20014;-62
2023/10/09 08:04:39;;;;;;;4.53;2.80;;;23.10;53.60;;;;;;5003936;28;20048;-61
2023/10/09 08:07:07;;;;;;;4.22;2.95;;;23.10;53.60;;;;;;5000025;28;20496;-61
2023/10/09 08:09:48;;;;;;;3.88;2.78;;;23.10;53.50;;;;;;5001898;28;20030;-62
2023/10/09 08:13:20;;;;;;;6.00;3.05;;;23.10;53.60;;;;;;4999561;28;20042;-62
2023/10/09 08:18:09;;;;;;;4.40;2.80;;;23.10;53.50;;;;;;5001222;28;20022;-62
2023/10/09 08:20:51;;;;;;;4.15;2.65;;;23.10;53.50;;;;;;5000391;28;20075;-61
2023/10/09 08:23:29;;;;;;;4.82;2.55;;;23.10;53.50;;;;;;5000602;28;20042;-62
2023/10/09 08:26:15;;;;;;;3.42;2.75;;;23.10;54.00;;;;;;5002689;28;20449;-62
2023/10/09 08:28:45;;;;;;;3.97;2.92;;;23.20;53.50;;;;;;4998799;28;20060;-62
2023/10/09 08:31:45;;;;;;;5.30;2.40;;;23.20;53.50;;;;;;5000049;28;20066;-62
2023/10/09 08:34:24;;;;;;;3.60;2.50;;;23.20;53.50;;;;;;5007909;28;20030;-62
2023/10/09 08:36:52;;;;;;;4.50;2.60;;;23.20;53.50;;;;;;5000159;28;20033;-62
2023/10/09 08:39:25;;;;;;;5.18;2.78;;;23.20;53.50;;;;;;5000313;28;20148;-62
2023/10/09 08:41:57;;;;;;;4.05;2.70;;;23.20;53.50;;;;;;5003106;28;20105;-62
2023/10/09 08:44:34;;;;;;;4.18;2.88;;;23.20;53.50;;;;;;5007558;28;20489;-62
2023/10/09 08:47:04;;;;;;;4.35;2.92;;;23.20;53.50;;;;;;5000483;28;20023;-61
2023/10/09 08:49:33;;;;;;;;;;;23.20;53.50;;;;;;5000958;28;20040;-62
2023/10/09 08:52:03;;;;;;;4.15;2.50;;;23.20;53.50;;;;;;5014111;28;19913;-62
2023/10/09 08:54:33;;;;;;;3.83;2.55;;;23.20;54.00;;;;;;5000040;28;20104;-62
2023/10/09 08:56:58;;;;;;;3.85;2.70;;;23.20;53.40;;;;;;5001385;28;20389;-61
2023/10/09 08:59:24;;;;;;;4.25;2.47;;;23.20;53.40;;;;;;4996836;28;20019;-61
2023/10/09 09:01:59;;;;;;;3.72;2.78;;;23.20;53.40;;;;;;5001018;28;20034;-62
2023/10/09 09:04:42;;;;;;;4.60;2.60;;;23.20;53.40;;;;;;4998981;28;20136;-61
2023/10/09 09:07:31;;;;;;;3.50;2.40;;;23.20;53.40;;;;;;5000154;28;20057;-61
2023/10/09 09:10:21;;;;;;;4.93;2.90;;;23.20;53.40;;;;;;5000597;28;20113;-61
2023/10/09 09:13:00;;;;;;;3.78;2.67;;;23.30;53.40;;;;;;4999743;28;20108;-61
2023/10/09 09:15:27;;;;;;;3.90;2.53;;;23.20;53.30;;;;;;5002431;28;20026;-61
2023/10/09 09:18:08;;;;;;;3.97;2.70;;;23.30;53.40;;;;;;4999780;28;20049;-62
2023/10/09 09:20:36;;;;;;;4.00;2.80;;;23.30;53.40;;;;;;4999431;28;20026;-61
2023/10/09 09:23:05;;;;;;;4.22;2.80;;;23.30;53.30;;;;;;5000428;28;20424;-61
2023/10/09 09:25:45;;;;;;;4.35;2.90;;;23.30;53.40;;;;;;5002248;28;20029;-62
2023/10/09 09:28:26;;;;;;;4.43;2.90;;;23.30;53.30;;;;;;5000483;28;20022;-62
2023/10/09 09:30:53;;;;;;;4.55;2.80;;;23.30;53.30;;;;;;5001901;28;20037;-61
2023/10/09 09:33:30;;;;;;;5.05;2.90;;;23.30;53.30;;;;;;4999098;28;20103;-64
2023/10/09 09:36:02;;;;;;;4.40;2.90;;;23.30;53.30;;;;;;5001318;28;20026;-63
2023/10/09 09:38:41;;;;;;;4.57;2.60;;;23.30;53.30;;;;;;4999790;28;20506;-64
2023/10/09 09:41:08;;;;;;;4.50;2.75;;;23.30;53.30;;;;;;4999790;28;20105;-63
2023/10/09 09:43:40;;;;;;;4.32;2.53;;;23.30;53.30;;;;;;5003416;28;20455;-64
2023/10/09 09:46:08;;;;;;;4.38;2.70;;;23.30;53.30;;;;;;4999474;28;20125;-63
2023/10/09 09:48:44;;;;;;;4.47;2.92;;;23.40;53.30;;;;;;5000398;28;20619;-62
2023/10/09 09:51:10;;;;;;;4.05;2.70;;;23.30;53.30;;;;;;5002681;28;20428;-63
2023/10/09 09:53:36;;;;;;;3.45;2.30;;;23.40;53.40;;;;;;4999927;28;20066;-62
2023/10/09 09:56:04;;;;;;;3.53;2.17;;;23.40;53.40;;;;;;5001119;28;20406;-63
2023/10/09 09:58:42;;;;;;;4.55;2.10;;;23.40;53.40;;;;;;5000522;28;20030;-62
2023/10/09 10:01:16;;;;;;;4.15;2.47;;;23.40;53.40;;;;;;5001083;28;20478;-63
2023/10/09 10:03:47;;;;;;;3.30;2.03;;;23.40;53.40;;;;;;4999518;28;20022;-62
2023/10/09 10:06:14;;;;;;;3.90;2.00;;;23.30;53.50;;;;;;4997818;28;20029;-62
2023/10/09 10:08:43;;;;;;;3.53;2.10;;;23.40;53.60;;;;;;4997488;28;20041;-63
2023/10/09 10:11:45;;;;;;;4.38;2.42;;;23.40;53.60;;;;;;5000167;28;20034;-62
2023/10/09 10:14:31;;;;;;;3.10;2.17;;;23.40;53.40;;;;;;5000009;28;20068;-62
2023/10/09 10:17:21;;;;;;;4.78;2.30;;;23.40;53.40;;;;;;4998933;28;20394;-62
2023/10/09 10:22:47;;;;;;;4.13;2.47;;;23.40;53.40;;;;;;4997579;28;20066;-63
2023/10/09 10:25:48;;;;;;;;;;;23.40;53.30;;;;;;5001329;28;20165;-63
2023/10/09 10:28:38;;;;;;;3.60;2.20;;;23.40;53.30;;;;;;4997985;28;19916;-64
2023/10/09 10:31:09;;;;;;;3.35;2.40;;;23.40;53.20;;;;;;4998020;28;20567;-62
2023/10/09 10:34:10;;;;;;;3.92;2.28;;;23.50;53.30;;;;;;4998243;28;20117;-62
2023/10/09 10:36:36;;;;;;;3.40;2.00;;;23.40;53.40;;;;;;4990085;28;20129;-62
2023/10/09 10:39:21;;;;;;;4.38;2.78;;;23.40;53.30;;;;;;4996540;28;20113;-63
2023/10/09 10:42:33;;;;;;;3.33;2.20;;;23.50;53.40;;;;;;5000497;28;20457;-63
2023/10/09 10:45:03;;;;;;;3.70;2.42;;;23.50;53.30;;;;;;4998338;28;20086;-62
2023/10/09 10:47:35;;;;;;;;;;;23.50;53.30;;;;;;4997964;28;20525;-62
2023/10/09 10:50:35;;;;;;;3.80;2.20;;;23.40;53.20;;;;;;4998718;28;19909;-62
2023/10/09 10:52:57;;;;;;;3.58;2.40;;;23.50;53.30;;;;;;4995975;28;20208;-63
2023/10/09 10:58:02;;;;;;;4.78;2.53;;;23.50;53.30;;;;;;4998200;28;20018;-62
2023/10/09 11:03:35;;;;;;;3.78;2.28;;;23.50;53.30;;;;;;4998107;28;20030;-61
2023/10/09 11:06:15;;;;;;;3.70;2.28;;;23.50;53.30;;;;;;4999276;28;20475;-62
2023/10/09 11:08:54;;;;;;;;;;;23.50;53.30;;;;;;4997790;28;20039;-63
2023/10/09 11:11:20;;;;;;;3.08;2.13;;;23.50;53.30;;;;;;4999148;28;19913;-62
2023/10/09 11:13:58;;;;;;;4.35;2.30;;;23.50;53.30;;;;;;4998705;28;20038;-63
2023/10/09 11:16:44;;;;;;;4.13;2.22;;;23.50;53.30;;;;;;5014904;28;20089;-64
2023/10/09 11:22:14;;;;;;;3.58;2.17;;;23.50;53.40;;;;;;4998672;28;20022;-63
2023/10/09 11:24:43;;;;;;;3.30;2.20;;;23.50;53.30;;;;;;5002574;28;20121;-64
2023/10/09 11:27:18;;;;;;;2.50;1.90;;;23.50;53.30;;;;;;5001367;28;20057;-63
2023/10/09 11:32:25;;;;;;;4.45;2.20;;;23.60;53.30;;;;;;5000786;28;20022;-63
2023/10/09 11:35:29;;;;;;;4.00;2.30;;;23.50;53.40;;;;;;5000716;28;20169;-63
2023/10/09 11:37:57;;;;;;;3.88;2.45;;;23.50;53.30;;;;;;4999633;28;20021;-64
2023/10/09 11:43:51;;;;;;;3.88;2.10;;;23.60;53.30;;;;;;5002530;28;20038;-63
2023/10/09 11:46:11;;;;;;;3.13;2.10;;;23.60;53.40;;;;;;5002622;28;20030;-61
2023/10/09 11:49:13;;;;;;;3.42;2.10;;;23.60;53.30;;;;;;5003618;28;20057;-62
2023/10/09 11:51:22;;;;;;;3.30;2.10;;;23.60;53.40;;;;;;5001224;28;20048;-62
2023/10/09 11:53:54;;;;;;;4.72;2.25;;;23.60;53.90;;;;;;5001827;28;20030;-63
2023/10/09 11:56:22;;;;;;;3.70;2.30;;;23.60;53.40;;;;;;5017623;28;20026;-63
2023/10/09 11:58:50;;;;;;;3.35;2.20;;;23.60;53.30;;;;;;5001497;28;20113;-64
2023/10/09 12:01:17;;;;;;;3.63;2.08;;;23.60;53.30;;;;;;5002310;28;20105;-65
2023/10/09 12:03:49;;;;;;;2.72;1.90;;;23.70;53.40;;;;;;5000288;28;20034;-65
2023/10/09 12:06:18;;;;;;;2.53;1.83;;;23.60;53.30;;;;;;5003508;28;20034;-64
2023/10/09 12:08:47;;;;;;;3.17;1.92;;;23.60;53.30;;;;;;5001372;28;20038;-65
2023/10/09 12:11:14;;;;;;;2.93;1.63;;;23.60;53.30;;;;;;5002013;28;20108;-64
2023/10/09 12:13:42;;;;;;;2.70;1.70;;;23.60;53.50;;;;;;5001207;28;20042;-64
2023/10/09 12:16:09;;;;;;;3.22;1.92;;;23.60;53.60;;;;;;5001493;28;20078;-62
2023/10/09 12:18:36;;;;;;;3.80;2.00;;;23.60;53.60;;;;;;5002028;28;20034;-62
2023/10/09 12:21:04;;;;;;;2.35;1.75;;;23.60;53.70;;;;;;5001244;28;20028;-62
2023/10/09 12:23:35;;;;;;;2.40;1.50;;;23.60;53.70;;;;;;5002079;28;20061;-63
2023/10/09 12:26:01;;;;;;;2.58;1.60;;;23.60;53.70;;;;;;5001435;28;20038;-63
2023/10/09 12:28:28;;;;;;;2.35;1.50;;;23.60;53.60;;;;;;5014882;28;20026;-63
2023/10/09 12:30:54;;;;;;;2.78;1.63;;;23.60;53.60;;;;;;5001470;28;20393;-63
2023/10/09 12:33:27;;;;;;;2.70;1.77;;;23.60;53.60;;;;;;5001548;28;20029;-63
2023/10/09 12:35:58;;;;;;;2.80;1.73;;;23.60;53.60;;;;;;5001559;28;20041;-63
2023/10/09 12:38:31;;;;;;;2.58;1.70;;;23.70;53.60;;;;;;5000336;28;20018;-63
2023/10/09 12:41:25;;;;;;;2.40;1.55;;;23.70;53.50;;;;;;5001604;28;20481;-64
2023/10/09 12:43:51;;;;;;;3.25;1.90;;;23.70;53.50;;;;;;4999438;28;20390;-64
2023/10/09 12:46:17;;;;;;;2.80;1.80;;;23.70;53.50;;;;;;5001117;28;20370;-64
2023/10/09 12:48:47;;;;;;;2.40;1.77;;;23.70;53.50;;;;;;5001214;28;20046;-64
2023/10/09 12:51:18;;;;;;;2.72;1.70;;;23.70;53.50;;;;;;5000257;28;20142;-65
2023/10/09 12:53:45;;;;;;;2.70;1.70;;;23.70;53.60;;;;;;4998847;28;20026;-64
2023/10/09 12:56:12;;;;;;;2.60;1.55;;;23.70;53.50;;;;;;5001576;28;20045;-64
2023/10/09 12:58:39;;;;;;;2.80;1.80;;;23.70;53.50;;;;;;5001596;28;20029;-64
2023/10/09 13:01:11;;;;;;;2.97;2.00;;;23.70;53.50;;;;;;5016363;28;20018;-64
2023/10/09 13:03:40;;;;;;;2.58;1.50;;;23.80;53.50;;;;;;4998576;28;20034;-63
2023/10/09 13:06:12;;;;;;;2.72;1.83;;;23.70;53.50;;;;;;5005870;28;20390;-64
2023/10/09 13:08:40;;;;;;;2.83;1.70;;;23.80;53.50;;;;;;5000894;28;20110;-64
2023/10/09 13:11:10;;;;;;;2.58;1.60;;;23.70;53.40;;;;;;5001432;28;20385;-63
2023/10/09 13:13:41;;;;;;;2.97;1.70;;;23.80;53.40;;;;;;5000733;28;20026;-63
2023/10/09 13:16:11;;;;;;;2.75;1.75;;;23.80;53.40;;;;;;5000458;28;20036;-64
2023/10/09 13:18:37;;;;;;;2.53;1.70;;;23.80;53.40;;;;;;5003985;28;20491;-64
2023/10/09 13:21:03;;;;;;;3.28;1.88;;;23.80;53.30;;;;;;5003245;28;20036;-64
2023/10/09 13:23:40;;;;;;;2.55;1.50;;;23.80;53.20;;;;;;4999388;28;20455;-64
2023/10/09 13:26:17;;;;;;;2.53;1.60;;;23.80;53.20;;;;;;5000394;28;20346;-64
2023/10/09 13:28:45;;;;;;;3.92;1.70;;;23.80;53.20;;;;;;5000145;28;20030;-63
2023/10/09 13:31:13;;;;;;;3.13;1.60;;;23.80;53.20;;;;;;4999328;28;20087;-64
2023/10/09 13:33:42;;;;;;;2.67;1.60;;;23.80;53.20;;;;;;4999864;28;20032;-63
2023/10/09 13:36:27;;;;;;;2.85;1.90;;;23.90;53.20;;;;;;5001592;28;20030;-62
2023/10/09 13:38:57;;;;;;;3.13;1.85;;;23.90;53.10;;;;;;5005330;28;20037;-63
2023/10/09 13:41:28;;;;;;;3.35;2.00;;;23.90;52.90;;;;;;4999032;28;20829;-62
2023/10/09 13:43:54;;;;;;;3.75;2.10;;;23.90;52.90;;;;;;5000651;28;20105;-63
2023/10/09 13:46:19;;;;;;;3.00;1.85;;;23.90;52.90;;;;;;4999912;28;20105;-63
2023/10/09 13:48:46;;;;;;;3.35;1.83;;;23.90;52.90;;;;;;4999974;28;20076;-62
2023/10/09 13:51:18;;;;;;;3.78;1.70;;;23.90;53.00;;;;;;4999003;28;20402;-63
2023/10/09 13:53:48;;;;;;;3.30;1.80;;;23.90;53.00;;;;;;4999876;28;20740;-62
2023/10/09 13:56:14;;;;;;;;;;;23.90;53.50;;;;;;5002563;28;20854;-62
2023/10/09 13:58:42;;;;;;;3.00;1.90;;;23.90;53.00;;;;;;4998427;28;19913;-63
2023/10/09 14:01:09;;;;;;;3.33;1.70;;;23.90;53.00;;;;;;4998587;28;20034;-65
2023/10/09 14:03:35;;;;;;;3.45;1.90;;;23.90;53.00;;;;;;4998000;28;20053;-65
2023/10/09 14:06:10;;;;;;;3.35;2.00;;;23.90;53.20;;;;;;5015608;28;20109;-65
2023/10/09 14:08:41;;;;;;;3.97;1.92;;;23.90;53.20;;;;;;4997828;28;20555;-65
2023/10/09 14:11:13;;;;;;;3.00;1.73;;;23.90;53.10;;;;;;4999972;28;20085;-65
2023/10/09 14:13:42;;;;;;;2.75;1.73;;;23.90;53.10;;;;;;4998047;28;20030;-65
2023/10/09 14:16:23;;;;;;;;;;;23.90;53.30;;;;;;5014773;28;20027;-65
2023/10/09 14:18:53;;;;;;;3.35;1.60;;;23.90;53.20;;;;;;5000648;28;19906;-64
2023/10/09 14:21:19;;;;;;;3.22;1.83;;;23.90;53.20;;;;;;4995640;28;20533;-65
2023/10/09 14:23:47;;;;;;;2.83;1.75;;;23.90;53.10;;;;;;4997355;28;20045;-65
2023/10/09 14:26:13;;;;;;;2.75;1.60;;;23.90;53.20;;;;;;4998341;28;20029;-64
2023/10/09 14:28:38;;;;;;;2.28;1.63;;;23.90;53.30;;;;;;4999160;28;20443;-65
2023/10/09 14:31:04;;;;;;;4.07;1.80;;;23.90;53.20;;;;;;4997854;28;20030;-65
2023/10/09 14:33:36;;;;;;;2.67;1.85;;;23.90;53.20;;;;;;4998999;28;20516;-65
2023/10/09 14:36:02;;;;;;;2.75;1.70;;;23.90;53.20;;;;;;4999584;28;20023;-65
2023/10/09 14:38:31;;;;;;;4.13;1.60;;;23.90;53.20;;;;;;4998204;28;20026;-64
2023/10/09 14:40:59;;;;;;;2.83;1.55;;;23.90;53.20;;;;;;5000962;28;20028;-64
2023/10/09 14:43:28;;;;;;;3.15;1.85;;;23.90;53.20;;;;;;4999609;28;20471;-64
2023/10/09 14:45:54;;;;;;;2.90;1.60;;;23.90;53.10;;;;;;4999302;28;20034;-64
2023/10/09 14:48:25;;;;;;;2.50;1.60;;;23.90;53.20;;;;;;4998792;28;20042;-64
2023/10/09 14:50:53;;;;;;;2.95;1.65;;;23.90;53.20;;;;;;4998600;28;20052;-64
2023/10/09 14:53:19;;;;;;;3.08;1.63;;;23.90;53.60;;;;;;4998267;28;20401;-63
2023/10/09 14:55:47;;;;;;;3.88;1.83;;;23.90;53.30;;;;;;4996107;28;20105;-64
2023/10/09 14:58:16;;;;;;;3.05;1.70;;;23.90;53.20;;;;;;5003610;28;20430;-64
2023/10/09 15:00:46;;;;;;;3.00;1.75;;;23.90;53.10;;;;;;5004679;28;20030;-64
2023/10/09 15:03:15;;;;;;;2.90;1.70;;;24.00;53.20;;;;;;5000898;28;20026;-64
2023/10/09 15:05:42;;;;;;;3.65;1.73;;;24.00;53.20;;;;;;5002314;28;20134;-64
2023/10/09 15:08:11;;;;;;;3.72;1.67;;;24.00;53.30;;;;;;5004033;28;20026;-64
2023/10/09 15:10:56;;;;;;;3.20;1.88;;;24.00;53.70;;;;;;5002627;28;20468;-64
2023/10/09 15:13:28;;;;;;;4.00;1.70;;;24.00;54.00;;;;;;5001472;28;20034;-64
2023/10/09 15:15:55;;;;;;;4.90;2.00;;;24.00;53.80;;;;;;5003058;28;20497;-64
2023/10/09 15:18:21;;;;;;;3.40;1.80;;;24.00;53.80;;;;;;5002669;28;20488;-64
2023/10/09 15:20:48;;;;;;;3.42;1.70;;;24.00;53.60;;;;;;5004173;28;20021;-64
2023/10/09 15:23:14;;;;;;;3.65;1.67;;;24.00;53.60;;;;;;5002632;28;20033;-64
2023/10/09 15:25:42;;;;;;;3.75;2.13;;;24.00;53.70;;;;;;5003108;28;20038;-66
2023/10/09 15:28:09;;;;;;;4.57;1.80;;;24.00;53.40;;;;;;5017571;28;20074;-66
2023/10/09 15:30:37;;;;;;;3.05;1.80;;;24.10;53.40;;;;;;5018341;28;20057;-65
2023/10/09 15:33:07;;;;;;;3.45;1.88;;;24.00;53.40;;;;;;5015989;28;20109;-65
2023/10/09 15:35:36;;;;;;;2.97;1.70;;;24.00;53.50;;;;;;5008537;28;20342;-65
2023/10/09 15:38:03;;;;;;;4.95;2.13;;;24.00;53.50;;;;;;5016151;28;20105;-65
2023/10/09 15:40:33;;;;;;;3.65;1.90;;;24.00;53.50;;;;;;4999409;28;20097;-65
2023/10/09 15:42:59;;;;;;;3.08;1.80;;;24.00;53.50;;;;;;5018407;28;20084;-65
2023/10/09 15:45:28;;;;;;;2.70;1.60;;;24.00;53.50;;;;;;5001766;28;20442;-65
2023/10/09 15:47:54;;;;;;;3.05;1.70;;;24.00;53.50;;;;;;5010514;28;20401;-65
2023/10/09 15:50:24;;;;;;;4.13;2.55;;;24.00;53.50;;;;;;5002322;28;20470;-65
2023/10/09 15:52:53;;;;;;;3.95;1.98;;;24.00;53.50;;;;;;5002033;28;20490;-62